createdAt,value
2023-01-07T00:07:13.490Z,11.04
2023-01-07T00:17:16.713Z,10.98
2023-01-07T00:27:21.405Z,10.93
2023-01-07T00:37:42.189Z,10.94
2023-01-07T00:47:46.566Z,10.93
2023-01-07T00:57:49.820Z,10.91
2023-01-07T01:07:54.640Z,10.88
2023-01-07T01:17:57.952Z,10.80
2023-01-07T01:28:02.235Z,10.76
2023-01-07T01:38:04.984Z,10.73
2023-01-07T01:48:11.086Z,10.64
2023-01-07T01:58:19.834Z,10.57
2023-01-07T02:08:25.712Z,10.52
2023-01-07T02:18:46.295Z,10.50
2023-01-07T02:29:29.624Z,10.58
2023-01-07T02:39:46.499Z,10.63
2023-01-07T02:49:50.308Z,10.77
2023-01-07T03:00:09.653Z,10.74
2023-01-07T03:10:22.722Z,10.70
2023-01-07T03:20:28.961Z,10.70
2023-01-07T03:30:32.374Z,10.75
2023-01-07T03:40:37.345Z,10.73
2023-01-07T03:50:41.020Z,10.81
2023-01-07T04:00:45.490Z,10.89
2023-01-07T04:10:53.202Z,10.99
2023-01-07T04:20:57.597Z,10.98
2023-01-07T04:31:01.409Z,11.00
2023-01-07T04:41:07.671Z,11.00
2023-01-07T04:51:10.758Z,11.00
2023-01-07T05:01:16.322Z,10.98
2023-01-07T05:11:21.989Z,10.93
2023-01-07T05:21:29.997Z,10.79
2023-01-07T05:31:33.886Z,10.78
2023-01-07T05:41:38.387Z,10.71
2023-01-07T05:51:42.625Z,10.57
2023-01-07T06:01:47.164Z,10.56
2023-01-07T06:11:50.224Z,10.52
2023-01-07T06:21:54.422Z,10.44
2023-01-07T06:31:57.306Z,10.45
2023-01-07T06:42:01.808Z,10.48
2023-01-07T06:52:05.268Z,10.46
2023-01-07T07:02:18.569Z,10.41
2023-01-07T07:12:21.719Z,10.39
2023-01-07T07:22:26.249Z,10.39
2023-01-07T07:32:29.389Z,10.43
2023-01-07T07:43:09.479Z,10.33
2023-01-07T07:52:58.138Z,10.34
2023-01-07T08:03:02.651Z,10.26
2023-01-07T08:13:06.156Z,10.22
2023-01-07T08:23:11.171Z,10.34
2023-01-07T08:33:14.149Z,10.39
2023-01-07T08:43:18.556Z,10.34
2023-01-07T08:53:21.877Z,10.70
2023-01-07T09:03:26.257Z,10.64
2023-01-07T09:13:29.127Z,10.39
2023-01-07T09:23:33.566Z,10.47
2023-01-07T09:33:36.557Z,10.78
2023-01-07T09:43:59.792Z,10.80
2023-01-07T09:54:06.905Z,10.63
2023-01-07T10:04:23.590Z,10.92
2023-01-07T10:14:37.750Z,10.79
2023-01-07T10:24:45.646Z,10.83
2023-01-07T10:34:50.662Z,10.91
2023-01-07T10:45:15.559Z,10.94
2023-01-07T10:55:42.845Z,10.96
2023-01-07T11:05:49.816Z,11.04
2023-01-07T11:15:56.417Z,11.16
2023-01-07T11:26:16.909Z,11.13
2023-01-07T11:36:19.909Z,11.14
2023-01-07T11:46:26.919Z,11.21
2023-01-07T11:56:33.325Z,11.23
2023-01-07T12:06:41.114Z,11.34
2023-01-07T12:16:44.493Z,11.35
2023-01-07T12:26:57.376Z,11.42
2023-01-07T12:37:05.541Z,11.40
2023-01-07T12:47:30.833Z,11.46
2023-01-07T12:57:38.347Z,11.49
2023-01-07T13:07:50.175Z,11.51
2023-01-07T13:17:54.869Z,11.49
2023-01-07T13:28:17.545Z,11.50
2023-01-07T13:38:46.567Z,11.58
2023-01-07T13:48:53.037Z,11.53
2023-01-07T13:58:57.103Z,11.52
2023-01-07T14:09:15.942Z,11.45
2023-01-07T14:19:40.181Z,11.40
2023-01-07T14:29:47.307Z,11.36
2023-01-07T14:39:51.562Z,11.30
2023-01-07T14:50:10.617Z,11.12
2023-01-07T15:00:49.024Z,11.00
2023-01-07T15:11:12.536Z,10.98
2023-01-07T15:21:26.918Z,10.92
2023-01-07T15:31:42.307Z,10.82
2023-01-07T15:41:45.241Z,10.81
2023-01-07T15:51:50.585Z,10.80
2023-01-07T16:02:02.520Z,10.79
2023-01-07T16:12:20.890Z,10.79
2023-01-07T16:22:43.481Z,10.77
2023-01-07T16:32:48.388Z,10.55
2023-01-07T16:42:52.612Z,10.47
2023-01-07T16:52:57.973Z,10.22
2023-01-07T17:03:01.341Z,10.25
2023-01-07T17:13:08.537Z,10.26
2023-01-07T17:23:33.184Z,10.23
2023-01-07T17:33:37.805Z,10.08
2023-01-07T17:43:40.833Z,10.25
2023-01-07T17:53:48.228Z,10.32
2023-01-07T18:03:52.322Z,10.46
2023-01-07T18:13:56.433Z,10.30
2023-01-07T18:23:59.522Z,10.27
2023-01-07T18:34:03.833Z,10.17
2023-01-07T18:44:06.995Z,10.47
2023-01-07T18:54:11.141Z,10.65
2023-01-07T19:04:14.203Z,10.76
2023-01-07T19:14:18.953Z,10.85
2023-01-07T19:24:22.681Z,10.97
2023-01-07T19:34:27.106Z,11.07
2023-01-07T19:44:30.033Z,11.11
2023-01-07T19:54:35.336Z,11.14
2023-01-07T20:04:40.195Z,11.22
2023-01-07T20:25:06.797Z,11.39
2023-01-07T20:35:11.378Z,11.30
2023-01-07T20:45:14.421Z,11.22
2023-01-07T20:55:19.137Z,11.20
2023-01-07T21:05:24.578Z,11.18
2023-01-07T21:15:29.248Z,11.20
2023-01-07T21:25:32.527Z,11.17
2023-01-07T21:35:40.942Z,11.15
2023-01-07T21:45:44.001Z,11.16
2023-01-07T21:55:48.521Z,11.13
2023-01-07T22:05:58.972Z,11.12
2023-01-07T22:16:05.694Z,11.17
2023-01-07T22:26:09.540Z,11.14
2023-01-07T22:36:16.012Z,11.09
2023-01-07T22:46:23.494Z,11.06
2023-01-07T22:56:28.376Z,11.04
2023-01-07T23:06:32.411Z,10.99
2023-01-07T23:16:38.508Z,10.97
2023-01-07T23:26:42.019Z,10.97
2023-01-07T23:36:46.548Z,11.00
2023-01-07T23:46:49.787Z,10.96
2023-01-07T23:56:54.172Z,10.94
